Time;durP1;ratioP1;P1;durP2;ratioP2;P2;SDS_P1;SDS_P2;PMS_P1;PMS_P2;Temp;Humidity;BMP_temperature;BMP_pressure;BME280_temperature;BME280_humidity;BME280_pressure;Samples;Min_cycle;Max_cycle;Signal;HPM_P1;HPM_P2
2021/05/19 00:02:00;;;;;;;19.65;12.68;;;;;;;6.92;88.85;100916.06;4982221;28;20029;-90
2021/05/19 00:04:26;;;;;;;16.98;11.55;;;;;;;7.14;87.56;100922.44;5018528;28;20032;-90
2021/05/19 00:06:52;;;;;;;18.52;13.70;;;;;;;7.13;88.43;100915.47;4998673;28;20489;-90
2021/05/19 00:09:18;;;;;;;17.88;13.13;;;;;;;6.99;89.19;100910.09;4981717;28;20098;-90
2021/05/19 00:11:45;;;;;;;18.00;13.20;;;;;;;6.93;89.56;100912.63;4999466;28;20036;-90
2021/05/19 00:14:15;;;;;;;19.95;13.82;;;;;;;6.83;90.10;100919.41;5015039;28;20045;-91
2021/05/19 00:16:43;;;;;;;17.25;12.68;;;;;;;6.74;90.31;100912.38;5001898;28;20040;-90
2021/05/19 00:19:09;;;;;;;18.30;12.45;;;;;;;6.84;89.43;100938.47;4981143;28;20501;-90
2021/05/19 00:21:36;;;;;;;17.20;12.45;;;;;;;6.66;90.34;100939.94;5004200;28;20045;-90
2021/05/19 00:24:04;;;;;;;16.95;12.57;;;;;;;6.71;89.56;100901.03;4995595;28;20715;-90
2021/05/19 00:26:30;;;;;;;16.08;11.25;;;;;;;6.76;89.02;100948.75;4981974;28;20500;-90
2021/05/19 00:29:05;;;;;;;16.15;11.40;;;;;;;6.72;89.84;100933.97;4998063;28;20094;-90
2021/05/19 00:31:33;;;;;;;18.25;12.40;;;;;;;6.47;90.17;100939.63;4989923;28;20393;-90
2021/05/19 00:34:08;;;;;;;17.27;12.60;;;;;;;6.41;90.34;100913.56;4984544;28;20041;-90
2021/05/19 00:36:34;;;;;;;19.20;12.25;;;;;;;6.44;89.83;100903.22;4999768;28;20068;-90
2021/05/19 00:39:02;;;;;;;15.05;10.88;;;;;;;6.67;89.86;100900.09;4998358;28;20045;-90
2021/05/19 00:41:28;;;;;;;16.95;11.70;;;;;;;6.50;90.08;100893.81;4998374;28;20045;-91
2021/05/19 00:44:06;;;;;;;18.00;12.05;;;;;;;6.28;90.58;100932.38;4982214;28;20033;-90
2021/05/19 00:46:34;;;;;;;16.63;11.30;;;;;;;6.19;91.05;100919.25;5005045;28;20037;-90
2021/05/19 00:49:01;;;;;;;14.68;10.90;;;;;;;6.32;90.76;100904.75;4983686;28;20060;-90
2021/05/19 00:51:27;;;;;;;15.90;11.65;;;;;;;6.27;89.81;100908.16;4983520;28;20045;-90
2021/05/19 00:53:56;;;;;;;16.02;11.18;;;;;;;6.34;90.16;100913.44;4999955;28;20033;-91
2021/05/19 00:56:25;;;;;;;;;;;;;;;6.20;90.72;100897.63;4983109;28;20041;-91
2021/05/19 00:59:01;;;;;;;14.95;10.73;;;;;;;6.16;90.63;100917.47;5000419;28;19928;-90
2021/05/19 01:01:34;;;;;;;16.45;10.93;;;;;;;6.31;90.60;100924.63;4985316;28;20425;-91
2021/05/19 01:04:15;;;;;;;14.52;10.30;;;;;;;6.28;90.16;100922.00;5013744;28;20067;-91
2021/05/19 01:07:03;;;;;;;15.15;11.07;;;;;;;6.11;91.43;100904.41;4999344;28;20060;-91
2021/05/19 01:09:35;;;;;;;17.25;11.52;;;;;;;6.09;91.45;100941.56;4982568;28;20548;-90
2021/05/19 01:12:16;;;;;;;16.23;11.23;;;;;;;6.18;90.68;100912.31;5018086;28;20183;-90
2021/05/19 01:14:44;;;;;;;16.27;10.95;;;;;;;6.20;90.87;100895.03;5012467;28;20045;-91
2021/05/19 01:17:11;;;;;;;17.33;10.88;;;;;;;6.41;90.14;100900.59;4998990;28;20041;-90
2021/05/19 01:19:52;;;;;;;15.18;10.65;;;;;;;6.20;90.58;100923.59;4985698;28;20103;-90
2021/05/19 01:22:27;;;;;;;15.55;11.10;;;;;;;6.10;91.79;100891.41;4995756;28;20044;-90
2021/05/19 01:24:53;;;;;;;15.82;11.27;;;;;;;6.04;91.64;100912.94;4998498;28;20056;-91
2021/05/19 01:27:20;;;;;;;15.48;11.00;;;;;;;6.00;91.48;100913.72;4984053;28;20056;-91
2021/05/19 01:29:53;;;;;;;18.35;12.55;;;;;;;6.07;91.78;100922.50;4998057;28;20116;-90
2021/05/19 01:32:19;;;;;;;18.63;12.20;;;;;;;6.03;91.72;100915.50;4987156;28;20453;-89
2021/05/19 01:34:45;;;;;;;18.38;12.52;;;;;;;6.04;91.25;100886.13;5004899;28;20031;-90
2021/05/19 01:37:14;;;;;;;16.83;11.27;;;;;;;6.08;91.59;100909.56;4985923;28;20493;-91
2021/05/19 01:39:42;;;;;;;16.83;12.00;;;;;;;6.16;91.37;100906.22;4987145;28;20447;-91
2021/05/19 01:42:09;;;;;;;16.00;11.25;;;;;;;6.19;90.63;100901.06;5003353;28;20442;-90
2021/05/19 01:44:36;;;;;;;17.27;11.05;;;;;;;6.42;89.57;100881.53;4985625;28;20048;-91
2021/05/19 01:47:11;;;;;;;15.65;11.10;;;;;;;6.64;88.13;100906.13;5001456;28;20128;-90
2021/05/19 01:49:43;;;;;;;16.20;10.75;;;;;;;6.52;89.32;100889.47;5004182;28;20044;-91
2021/05/19 01:52:12;;;;;;;16.92;12.02;;;;;;;6.27;90.30;100920.25;5002392;28;20107;-91
2021/05/19 01:54:41;;;;;;;15.93;11.32;;;;;;;6.24;90.93;100930.59;5002457;28;20449;-91
2021/05/19 01:57:09;;;;;;;16.52;10.82;;;;;;;6.28;90.11;100881.31;4989090;28;20049;-90
2021/05/19 01:59:37;;;;;;;16.73;11.70;;;;;;;6.32;90.11;100916.00;4987932;28;20049;-90
2021/05/19 02:02:04;;;;;;;15.75;10.82;;;;;;;6.32;90.10;100922.94;5006451;28;20033;-91
2021/05/19 02:04:32;;;;;;;16.58;11.15;;;;;;;6.32;89.96;100918.59;4990481;28;20484;-90
2021/05/19 02:06:59;;;;;;;18.27;11.93;;;;;;;6.30;90.39;100884.84;4979362;28;20048;-90
2021/05/19 02:09:40;;;;;;;17.00;11.27;;;;;;;6.13;91.54;100938.19;4987223;28;20551;-91
2021/05/19 02:12:08;;;;;;;17.23;11.57;;;;;;;6.11;91.89;100891.44;4986503;28;20043;-91
2021/05/19 02:14:36;;;;;;;18.38;12.50;;;;;;;6.12;91.18;100889.72;4997948;28;20053;-91
2021/05/19 02:17:02;;;;;;;18.77;11.80;;;;;;;6.18;91.62;100923.56;4990659;28;20107;-91
2021/05/19 02:19:30;;;;;;;17.58;11.43;;;;;;;6.22;90.52;100890.75;5019398;28;20037;-91
2021/05/19 02:21:59;;;;;;;;;;;;;;;6.39;91.07;100898.81;5000400;28;20043;-91
2021/05/19 02:24:29;;;;;;;14.88;10.38;;;;;;;6.31;90.67;100896.09;5021423;28;19913;-90
2021/05/19 02:26:55;;;;;;;17.35;11.68;;;;;;;6.32;91.04;100928.13;5001820;28;20036;-91
2021/05/19 02:29:27;;;;;;;17.80;11.43;;;;;;;6.30;90.94;100902.16;4984989;28;20056;-92
2021/05/19 02:31:54;;;;;;;16.83;11.82;;;;;;;6.29;91.12;100897.78;4982469;28;20098;-92
2021/05/19 02:34:20;;;;;;;18.58;12.23;;;;;;;6.27;91.05;100904.66;4990017;28;20097;-91
2021/05/19 02:36:48;;;;;;;19.57;13.83;;;;;;;6.23;91.99;100895.06;4989101;28;20048;-91
2021/05/19 02:39:17;;;;;;;17.98;11.95;;;;;;;6.17;92.22;100918.34;4997279;28;20425;-91
2021/05/19 02:41:47;;;;;;;20.42;12.75;;;;;;;6.13;92.21;100883.66;4970769;28;20053;-91
2021/05/19 02:44:16;;;;;;;19.10;12.20;;;;;;;6.19;92.13;100896.78;4989184;28;20037;-91
2021/05/19 02:46:45;;;;;;;18.80;12.82;;;;;;;6.29;91.17;100927.22;5001308;28;20787;-91
2021/05/19 02:49:10;;;;;;;19.48;12.73;;;;;;;6.19;92.24;100914.03;4998202;28;20041;-91
2021/05/19 02:51:37;;;;;;;20.15;12.75;;;;;;;6.08;92.60;100919.94;4985099;28;20387;-92
2021/05/19 02:54:08;;;;;;;17.88;12.70;;;;;;;6.21;92.43;100905.44;4999069;28;20042;-90
2021/05/19 02:56:34;;;;;;;19.23;12.25;;;;;;;6.21;92.76;100896.78;5003908;28;20051;-91
2021/05/19 02:59:00;;;;;;;21.65;13.52;;;;;;;6.21;92.10;100904.56;4999435;28;20539;-92
2021/05/19 03:01:29;;;;;;;22.95;14.27;;;;;;;6.23;92.71;100941.81;5014488;28;20029;-92
2021/05/19 03:03:55;;;;;;;22.65;13.82;;;;;;;6.26;92.68;100908.13;4983891;28;20064;-90
2021/05/19 03:06:25;;;;;;;24.35;14.75;;;;;;;6.29;92.92;100913.38;4999859;28;20041;-91
2021/05/19 03:08:55;;;;;;;26.35;16.35;;;;;;;6.32;93.32;100912.56;4996419;28;20041;-90
2021/05/19 03:11:21;;;;;;;27.25;17.00;;;;;;;6.36;93.22;100925.59;4999187;28;20045;-90
2021/05/19 03:14:12;;;;;;;27.13;16.45;;;;;;;6.34;93.48;100916.94;4985848;28;20060;-92
2021/05/19 03:16:38;;;;;;;28.67;16.45;;;;;;;6.35;93.50;100925.59;4999909;28;20102;-91
2021/05/19 03:19:07;;;;;;;23.15;15.77;;;;;;;6.45;93.02;100950.84;5000274;28;20046;-94
2021/05/19 03:21:33;;;;;;;23.42;16.40;;;;;;;6.44;92.84;100924.00;5000822;28;20045;-91
2021/05/19 03:23:59;;;;;;;28.60;18.33;;;;;;;6.43;92.93;100948.22;5000309;28;20390;-90
2021/05/19 03:26:29;;;;;;;27.40;16.05;;;;;;;6.45;92.37;100924.88;5006830;28;20041;-91
2021/05/19 03:28:55;;;;;;;28.05;17.60;;;;;;;6.45;92.15;100936.16;4995928;28;20032;-90
2021/05/19 03:31:24;;;;;;;27.25;16.92;;;;;;;6.50;92.57;100950.94;5005289;28;20588;-91
2021/05/19 03:33:50;;;;;;;;;;;;;;;6.55;92.00;100929.38;5018038;28;20049;-90
2021/05/19 03:36:18;;;;;;;21.33;13.88;;;;;;;6.53;92.51;100963.97;4988261;28;19928;-93
2021/05/19 03:38:44;;;;;;;18.83;13.10;;;;;;;6.59;90.97;100958.84;5014901;28;20097;-92
2021/05/19 03:41:10;;;;;;;20.40;13.13;;;;;;;6.58;91.67;100939.81;4998222;28;20475;-91
2021/05/19 03:43:37;;;;;;;24.30;15.40;;;;;;;6.52;92.24;100983.88;4986436;28;20032;-91
2021/05/19 03:46:04;;;;;;;22.30;14.30;;;;;;;6.56;92.62;100935.44;5011364;28;20067;-91
2021/05/19 03:48:30;;;;;;;22.10;14.10;;;;;;;6.59;92.65;100964.06;5000843;28;20047;-91
2021/05/19 03:50:56;;;;;;;21.35;13.88;;;;;;;6.58;91.55;100962.34;4983400;28;20045;-91
2021/05/19 03:53:22;;;;;;;22.20;14.10;;;;;;;6.58;92.24;100958.00;4997821;28;20052;-91
2021/05/19 03:55:48;;;;;;;18.10;12.55;;;;;;;6.60;91.53;100929.44;5004597;28;20034;-91
2021/05/19 03:58:14;;;;;;;20.52;13.32;;;;;;;6.52;92.00;100931.03;4999930;28;20516;-92
2021/05/19 04:00:40;;;;;;;19.80;12.85;;;;;;;6.51;92.02;100944.88;4984425;28;20139;-89
2021/05/19 04:03:06;;;;;;;19.15;13.30;;;;;;;6.55;92.38;100962.25;5005035;28;20076;-90
2021/05/19 04:05:36;;;;;;;18.23;12.95;;;;;;;6.54;92.35;100931.97;4999634;28;20573;-90
2021/05/19 04:08:04;;;;;;;18.70;12.30;;;;;;;6.58;92.40;100936.34;5017237;28;20035;-91
2021/05/19 04:10:31;;;;;;;19.88;12.95;;;;;;;6.59;92.04;100935.47;4989358;28;20090;-91
2021/05/19 04:12:57;;;;;;;20.50;12.75;;;;;;;6.65;92.05;100961.56;4985048;28;20060;-91
2021/05/19 04:15:25;;;;;;;17.63;12.23;;;;;;;6.68;92.24;100930.44;4986035;28;20045;-91
2021/05/19 04:17:52;;;;;;;15.25;11.00;;;;;;;6.69;90.65;100940.00;5013581;28;20128;-91
2021/05/19 04:20:19;;;;;;;14.70;9.82;;;;;;;6.75;90.48;100960.00;4983597;28;20068;-90
2021/05/19 04:22:45;;;;;;;18.27;12.18;;;;;;;6.81;90.96;100958.38;4984496;28;20047;-90
2021/05/19 04:25:13;;;;;;;17.25;11.40;;;;;;;6.84;89.66;100946.25;5001350;28;20046;-91
2021/05/19 04:27:39;;;;;;;18.05;13.00;;;;;;;6.85;91.06;100950.63;4997953;28;20371;-90
2021/05/19 04:30:06;;;;;;;18.58;12.93;;;;;;;6.79;91.83;100975.66;4998702;28;20056;-89
2021/05/19 04:32:32;;;;;;;18.98;12.63;;;;;;;6.77;92.37;100947.88;4983572;28;20049;-91
2021/05/19 04:35:11;;;;;;;21.15;14.10;;;;;;;6.74;92.66;101000.72;5014357;28;20036;-90
2021/05/19 04:37:37;;;;;;;20.10;13.02;;;;;;;6.71;92.53;100953.00;5003568;28;20021;-90
2021/05/19 04:40:06;;;;;;;20.67;12.82;;;;;;;6.73;92.44;100965.16;5002581;28;20106;-90
2021/05/19 04:42:33;;;;;;;22.98;14.95;;;;;;;6.73;92.69;100970.38;4987272;28;20048;-90
2021/05/19 04:44:59;;;;;;;21.40;14.70;;;;;;;6.76;92.93;100987.72;4987746;28;20044;-91
2021/05/19 04:47:27;;;;;;;24.08;16.52;;;;;;;6.73;92.71;100978.16;5000999;28;20044;-92
2021/05/19 04:49:53;;;;;;;22.33;15.50;;;;;;;6.71;93.14;100992.84;5001031;28;20571;-91
2021/05/19 04:52:19;;;;;;;23.85;16.42;;;;;;;6.75;93.50;100965.19;4988336;28;20036;-91
2021/05/19 04:54:45;;;;;;;27.92;17.60;;;;;;;6.72;92.92;100966.00;4998228;28;20114;-91
2021/05/19 04:57:11;;;;;;;24.90;15.73;;;;;;;6.76;92.18;100988.59;4985425;28;20053;-90
2021/05/19 04:59:37;;;;;;;26.55;17.45;;;;;;;6.85;92.65;101002.59;4982431;28;20396;-90
2021/05/19 05:02:03;;;;;;;27.23;17.80;;;;;;;6.89;93.07;100974.06;4984977;28;20075;-90
2021/05/19 05:04:29;;;;;;;26.85;16.83;;;;;;;6.95;92.88;100981.06;5018047;28;20056;-91
2021/05/19 05:06:58;;;;;;;27.73;16.90;;;;;;;7.35;92.32;101009.41;4985752;28;20137;-91
2021/05/19 05:09:25;;;;;;;24.95;16.80;;;;;;;7.86;90.31;100971.00;4995541;28;20049;-90
2021/05/19 05:11:57;;;;;;;25.27;17.02;;;;;;;7.75;90.51;100987.34;4985827;28;20055;-91
2021/05/19 05:14:23;;;;;;;28.15;18.05;;;;;;;7.79;90.63;101011.72;5001665;28;20116;-90
2021/05/19 05:16:49;;;;;;;26.02;17.10;;;;;;;7.69;91.02;100970.81;4980542;28;20072;-91
2021/05/19 05:19:15;;;;;;;30.88;18.77;;;;;;;7.59;91.33;100969.84;5005020;28;20053;-91
2021/05/19 05:21:41;;;;;;;32.17;19.73;;;;;;;7.51;92.38;101000.94;4991766;28;20055;-91
2021/05/19 05:24:07;;;;;;;28.88;19.25;;;;;;;7.60;93.28;100984.56;5007773;28;20065;-91
2021/05/19 05:26:33;;;;;;;25.08;17.30;;;;;;;7.75;92.40;101007.31;4994108;28;20088;-91
2021/05/19 05:28:59;;;;;;;27.23;18.20;;;;;;;7.70;92.90;100973.44;5009798;28;20149;-91
2021/05/19 05:31:25;;;;;;;23.75;17.02;;;;;;;7.72;92.48;101002.09;5012671;28;20395;-91
2021/05/19 05:33:52;;;;;;;24.67;17.83;;;;;;;7.65;91.98;100985.50;5026821;28;20138;-91
2021/05/19 05:36:21;;;;;;;27.67;18.90;;;;;;;7.72;92.62;100971.72;4998154;28;20120;-91
2021/05/19 05:38:46;;;;;;;30.25;19.65;;;;;;;7.73;92.65;101028.13;4992118;28;20041;-92
2021/05/19 05:41:15;;;;;;;31.25;19.58;;;;;;;7.77;93.18;100988.28;5008029;28;20048;-92
2021/05/19 05:43:41;;;;;;;27.02;17.63;;;;;;;7.74;89.74;100979.53;4986774;28;20124;-91
2021/05/19 05:46:07;;;;;;;28.08;18.75;;;;;;;7.81;91.76;100973.56;5000000;28;20124;-91
2021/05/19 05:48:33;;;;;;;21.67;16.60;;;;;;;7.84;90.68;101010.91;5002014;28;20109;-91
2021/05/19 05:51:05;;;;;;;23.48;17.40;;;;;;;7.94;92.03;100995.41;5000906;28;20389;-92
2021/05/19 05:53:34;;;;;;;23.15;15.30;;;;;;;7.95;91.39;100973.72;4999996;28;20051;-92
2021/05/19 05:56:03;;;;;;;;;;;;;;;7.95;89.91;100979.78;5003627;28;20499;-91
2021/05/19 05:58:45;;;;;;;23.73;17.30;;;;;;;8.08;91.82;100979.94;5005723;28;19928;-92
2021/05/19 06:01:11;;;;;;;28.60;17.77;;;;;;;8.13;91.17;101012.13;5017483;28;20054;-92
2021/05/19 06:03:37;;;;;;;25.63;17.63;;;;;;;8.28;91.25;100987.94;4999094;28;20045;-92
2021/05/19 06:06:06;;;;;;;23.20;15.57;;;;;;;8.43;88.36;101021.09;4998289;28;20051;-92
2021/05/19 06:08:32;;;;;;;20.55;14.43;;;;;;;8.86;87.67;101019.78;4997911;28;20072;-92
2021/05/19 06:10:59;;;;;;;21.15;15.40;;;;;;;8.67;87.15;101023.94;4998867;28;20071;-92
2021/05/19 06:13:25;;;;;;;21.40;15.57;;;;;;;8.91;87.67;100991.13;5002294;28;20470;-92
2021/05/19 06:15:51;;;;;;;18.63;14.30;;;;;;;8.72;86.87;100982.28;4973011;28;20076;-92
2021/05/19 06:18:17;;;;;;;23.90;14.70;;;;;;;8.77;86.66;100985.81;5003564;28;20097;-92
2021/05/19 06:20:43;;;;;;;20.60;14.35;;;;;;;8.52;85.98;101042.91;5009257;28;20518;-93
2021/05/19 06:24:03;;;;;;;20.33;14.38;;;;;;;8.46;88.05;100985.56;4957293;28;20151;-91
2021/05/19 06:26:29;;;;;;;20.50;14.13;;;;;;;8.54;89.68;101016.00;4999255;28;20053;-92
2021/05/19 06:28:58;;;;;;;20.02;14.55;;;;;;;8.89;87.30;101015.44;5021576;28;20075;-92
2021/05/19 06:31:25;;;;;;;19.00;13.23;;;;;;;8.73;85.02;100991.00;5036294;28;20382;-91
2021/05/19 06:33:54;;;;;;;21.50;13.60;;;;;;;8.58;86.45;100996.94;4984115;28;20456;-91
2021/05/19 06:36:23;;;;;;;21.55;14.07;;;;;;;8.69;88.82;101032.69;4987261;28;20041;-92
2021/05/19 06:38:49;;;;;;;19.15;11.77;;;;;;;9.11;85.45;101039.94;4986764;28;20296;-91
2021/05/19 06:41:16;;;;;;;19.52;12.55;;;;;;;8.94;85.70;101013.75;5002349;28;20065;-90
2021/05/19 06:43:42;;;;;;;18.00;9.45;;;;;;;9.25;81.98;100996.56;5006061;28;20040;-90
2021/05/19 06:46:08;;;;;;;16.35;9.88;;;;;;;9.22;81.70;101007.00;4988898;28;20044;-90
2021/05/19 06:48:34;;;;;;;13.93;7.40;;;;;;;9.25;81.39;101038.31;5016945;28;20056;-91
2021/05/19 06:51:02;;;;;;;15.02;8.55;;;;;;;9.23;80.74;101005.25;4987551;28;20045;-91
2021/05/19 06:53:28;;;;;;;15.35;9.25;;;;;;;9.11;81.51;101039.94;5004244;28;20293;-90
2021/05/19 06:55:56;;;;;;;21.00;8.70;;;;;;;9.10;82.00;101030.38;4991910;28;20155;-90
2021/05/19 06:58:22;;;;;;;16.17;8.93;;;;;;;9.21;81.79;101013.06;4993107;28;20119;-90
2021/05/19 07:00:49;;;;;;;17.13;9.52;;;;;;;9.32;81.56;101010.53;5019100;28;20049;-91
2021/05/19 07:03:17;;;;;;;15.95;8.77;;;;;;;9.18;82.06;101000.03;5009417;28;20057;-92
2021/05/19 07:05:45;;;;;;;11.43;7.53;;;;;;;9.49;81.12;101034.97;5015151;28;20098;-91
2021/05/19 07:08:11;;;;;;;11.43;6.47;;;;;;;9.57;78.62;101039.34;5004629;28;20660;-90
2021/05/19 07:10:43;;;;;;;12.02;7.28;;;;;;;9.34;81.55;101034.88;5005131;28;20033;-91
2021/05/19 07:13:09;;;;;;;15.18;8.40;;;;;;;9.49;79.38;101013.22;4999240;28;20034;-90
2021/05/19 07:15:38;;;;;;;13.18;6.85;;;;;;;9.49;77.87;101011.47;5018262;28;20577;-91
2021/05/19 07:18:11;;;;;;;13.90;7.13;;;;;;;9.53;78.17;101047.16;5002006;28;20061;-91
2021/05/19 07:20:38;;;;;;;15.93;8.25;;;;;;;9.26;81.16;101053.09;5001942;28;20084;-91
2021/05/19 07:23:03;;;;;;;14.23;7.78;;;;;;;9.37;80.71;101045.34;5000598;28;20114;-90
2021/05/19 07:25:29;;;;;;;13.07;7.03;;;;;;;9.31;81.19;101006.16;5007112;28;20041;-91
2021/05/19 07:27:55;;;;;;;15.00;9.02;;;;;;;9.67;79.26;101028.09;4986555;28;20037;-90
2021/05/19 07:30:22;;;;;;;12.05;5.80;;;;;;;9.94;75.75;101011.69;4987466;28;20071;-90
2021/05/19 07:32:48;;;;;;;13.75;5.55;;;;;;;9.97;75.92;101006.47;5018564;28;20045;-88
2021/05/19 07:35:14;;;;;;;10.85;4.88;;;;;;;9.85;75.73;101045.59;4985509;28;20029;-90
2021/05/19 07:37:40;;;;;;;13.73;5.25;;;;;;;9.68;77.58;101016.81;5006571;28;20606;-92
2021/05/19 07:40:07;;;;;;;11.70;5.60;;;;;;;9.75;78.62;101013.34;4981729;28;20043;-91
2021/05/19 07:42:33;;;;;;;8.70;3.67;;;;;;;10.19;74.37;101043.09;4988817;28;20395;-90
2021/05/19 07:44:58;;;;;;;11.73;4.97;;;;;;;10.05;79.95;101025.66;5003599;28;20190;-91
2021/05/19 07:47:25;;;;;;;12.13;5.57;;;;;;;9.95;82.21;101057.81;5003894;28;20401;-92
2021/05/19 07:49:52;;;;;;;8.00;3.97;;;;;;;10.08;77.57;101045.69;4990837;28;20126;-93
2021/05/19 07:52:27;;;;;;;8.68;4.07;;;;;;;10.03;77.77;101042.19;4985573;28;20046;-93
2021/05/19 07:54:55;;;;;;;7.53;4.00;;;;;;;10.48;75.23;101014.47;5016471;28;20047;-94
2021/05/19 07:57:25;;;;;;;7.85;4.28;;;;;;;10.68;72.74;101039.75;5003170;28;20068;-91
2021/05/19 08:00:10;;;;;;;12.05;4.97;;;;;;;10.57;73.70;101022.28;4981941;28;20519;-91
2021/05/19 08:02:41;;;;;;;11.20;4.97;;;;;;;10.47;74.59;101007.47;4999581;28;20068;-92
2021/05/19 08:05:07;;;;;;;9.90;3.80;;;;;;;10.89;70.99;101021.44;4984358;28;20040;-89
2021/05/19 08:07:33;;;;;;;12.27;4.80;;;;;;;10.73;73.21;100991.81;5006350;28;20481;-91
2021/05/19 08:10:11;;;;;;;8.02;4.28;;;;;;;11.17;70.97;101010.06;4991225;28;20057;-93
2021/05/19 08:12:44;;;;;;;8.23;4.40;;;;;;;11.11;72.03;101000.50;4978299;28;20048;-94
2021/05/19 08:15:16;;;;;;;8.60;3.80;;;;;;;10.97;71.52;101044.97;4971124;28;20133;-92
2021/05/19 08:17:52;;;;;;;7.43;3.90;;;;;;;11.25;68.46;101022.25;4968147;28;20083;-93
2021/05/19 08:20:20;;;;;;;5.88;3.42;;;;;;;11.16;72.13;101032.75;4977204;28;21063;-92
2021/05/19 08:22:50;;;;;;;9.48;4.20;;;;;;;11.27;73.13;101032.75;4989840;28;20044;-93
2021/05/19 08:25:50;;;;;;;9.10;4.75;;;;;;;11.27;72.70;101037.09;4998114;28;20570;-93
2021/05/19 08:28:21;;;;;;;8.60;4.88;;;;;;;11.43;69.83;101002.16;4954177;28;20129;-92
2021/05/19 08:31:18;;;;;;;8.73;5.65;;;;;;;11.32;69.12;100998.72;5006843;28;20140;-92
2021/05/19 08:33:45;;;;;;;8.93;5.18;;;;;;;11.28;71.26;101013.53;4999101;28;20045;-89
2021/05/19 08:36:22;;;;;;;7.97;4.88;;;;;;;11.19;71.23;101008.34;4978199;28;20052;-93
2021/05/19 08:38:48;;;;;;;7.78;3.72;;;;;;;11.14;69.71;101004.84;5005456;28;20102;-93
2021/05/19 08:41:14;;;;;;;10.45;3.80;;;;;;;11.08;70.01;101000.50;5005705;28;20037;-92
2021/05/19 08:43:44;;;;;;;7.30;3.28;;;;;;;10.90;71.00;101007.50;5005654;28;20045;-92
2021/05/19 08:46:11;;;;;;;7.13;3.38;;;;;;;10.96;70.21;101000.53;5004046;28;20615;-92
2021/05/19 08:48:39;;;;;;;6.88;3.22;;;;;;;10.70;72.74;101009.22;5001006;28;21056;-93
2021/05/19 08:51:09;;;;;;;9.70;3.55;;;;;;;10.50;76.35;101017.94;4984615;28;20041;-93
2021/05/19 08:53:35;;;;;;;9.52;3.70;;;;;;;10.76;73.18;101005.75;4985049;28;20036;-93
2021/05/19 08:56:07;;;;;;;9.00;4.07;;;;;;;10.50;75.71;101043.22;4982547;28;20064;-92
2021/05/19 08:58:34;;;;;;;7.45;3.28;;;;;;;10.87;73.93;101011.88;5006045;28;20041;-92
2021/05/19 09:01:00;;;;;;;6.82;2.75;;;;;;;10.63;75.27;100997.03;4981458;28;20061;-92
2021/05/19 09:03:26;;;;;;;5.13;2.40;;;;;;;10.55;75.85;101052.81;5000219;28;20053;-92
2021/05/19 09:05:53;;;;;;;4.95;2.47;;;;;;;10.92;75.32;101011.84;4984271;28;20045;-93
2021/05/19 09:08:20;;;;;;;8.32;2.42;;;;;;;11.15;71.54;101027.53;5000083;28;20099;-91
2021/05/19 09:11:03;;;;;;;6.35;2.00;;;;;;;11.01;74.73;101046.72;4984358;28;20043;-90
2021/05/19 09:13:41;;;;;;;6.90;2.03;;;;;;;11.18;71.22;101006.59;4998074;28;20163;-91
2021/05/19 09:16:10;;;;;;;4.95;2.10;;;;;;;11.43;69.10;101015.25;4999666;28;20119;-90
2021/05/19 09:18:59;;;;;;;3.88;1.88;;;;;;;11.54;68.79;101002.13;4996302;28;20036;-90
2021/05/19 09:21:30;;;;;;;3.47;2.00;;;;;;;11.46;70.04;100993.44;4999326;28;20521;-89
2021/05/19 09:23:56;;;;;;;6.78;2.00;;;;;;;11.60;69.22;100994.25;4983598;28;20045;-90
2021/05/19 09:26:21;;;;;;;7.07;2.30;;;;;;;11.76;67.42;101016.03;4980269;28;20037;-89
2021/05/19 09:28:48;;;;;;;7.47;2.30;;;;;;;11.80;69.18;101007.28;4998936;28;20129;-88
2021/05/19 09:31:21;;;;;;;3.80;1.92;;;;;;;11.54;69.02;101005.63;4984538;28;20159;-90
2021/05/19 09:33:48;;;;;;;5.47;2.20;;;;;;;11.83;68.19;100994.16;4978374;28;20041;-89
2021/05/19 09:36:22;;;;;;;7.72;1.90;;;;;;;12.12;68.70;101001.03;4996654;28;20516;-88
2021/05/19 09:38:50;;;;;;;4.88;1.92;;;;;;;12.40;65.70;101016.59;4992328;28;20405;-89
2021/05/19 09:41:39;;;;;;;4.28;1.98;;;;;;;12.15;66.10;100977.41;5001374;28;20128;-87
2021/05/19 09:44:24;;;;;;;5.37;1.70;;;;;;;12.46;65.02;100968.47;5015415;28;21005;-89
2021/05/19 09:46:52;;;;;;;7.25;1.83;;;;;;;12.47;65.03;100997.31;4995753;28;20295;-89
2021/05/19 09:49:26;;;;;;;4.05;1.95;;;;;;;12.44;66.12;100968.50;4925297;28;20045;-88
2021/05/19 09:52:00;;;;;;;9.65;2.40;;;;;;;12.87;65.77;100968.13;4986600;28;21540;-88
2021/05/19 09:54:31;;;;;;;5.78;1.83;;;;;;;12.99;64.83;100966.25;5004820;28;20176;-89
2021/05/19 09:57:00;;;;;;;3.80;1.40;;;;;;;12.95;61.17;100971.53;5002949;28;20582;-86
2021/05/19 09:59:26;;;;;;;6.10;1.40;;;;;;;13.01;61.33;100961.88;5004675;28;20087;-87
2021/05/19 10:01:57;;;;;;;6.85;2.50;;;;;;;13.34;60.95;100962.41;5004226;28;20029;-87
2021/05/19 10:04:28;;;;;;;5.05;1.80;;;;;;;13.10;63.45;101011.66;5021362;28;20067;-88
2021/05/19 10:06:58;;;;;;;4.85;1.40;;;;;;;13.51;59.78;100997.22;5034678;28;20119;-86
2021/05/19 10:09:25;;;;;;;4.20;2.17;;;;;;;13.42;59.19;100981.59;4987879;28;20049;-87
2021/05/19 10:11:51;;;;;;;3.33;1.35;;;;;;;13.41;61.87;100987.72;5002147;28;20053;-89
2021/05/19 10:14:21;;;;;;;3.13;1.40;;;;;;;13.72;60.70;100955.81;5020586;28;20037;-89
2021/05/19 10:16:50;;;;;;;4.75;1.50;;;;;;;13.87;58.34;100989.78;5006615;28;20029;-88
2021/05/19 10:19:27;;;;;;;4.47;1.40;;;;;;;13.89;57.07;100963.50;5015809;28;20045;-87
2021/05/19 10:21:56;;;;;;;4.90;1.70;;;;;;;13.72;61.37;100984.72;5002996;28;20435;-88
2021/05/19 10:24:41;;;;;;;;;;;;;;;13.83;59.33;100951.31;4987203;28;20043;-89
2021/05/19 10:27:08;;;;;;;4.22;1.42;;;;;;;13.56;59.07;100984.06;5005322;28;19924;-88
2021/05/19 10:29:49;;;;;;;4.35;1.55;;;;;;;13.35;60.27;100953.66;5002132;28;20710;-87
2021/05/19 10:32:32;;;;;;;4.18;1.70;;;;;;;13.29;61.16;100944.94;4988677;28;20041;-89
2021/05/19 10:35:07;;;;;;;4.47;1.52;;;;;;;13.92;56.99;100934.56;5002008;28;20040;-88
2021/05/19 10:37:40;;;;;;;5.15;1.77;;;;;;;13.73;58.01;100928.69;5009086;28;20149;-89
2021/05/19 10:40:18;;;;;;;6.90;2.80;;;;;;;13.87;59.73;100912.72;4986526;28;20053;-89
2021/05/19 10:42:57;;;;;;;5.28;2.30;;;;;;;14.24;56.99;100920.06;4989146;28;20056;-88
2021/05/19 10:45:26;;;;;;;5.57;2.15;;;;;;;14.20;58.72;100919.22;5004554;28;20052;-90
2021/05/19 10:47:55;;;;;;;4.20;1.98;;;;;;;14.22;60.10;100917.44;5002144;28;20056;-89
2021/05/19 10:50:34;;;;;;;4.72;1.83;;;;;;;14.58;53.90;100941.41;4983815;28;20060;-88
2021/05/19 11:01:16;;;;;;;2.78;1.48;;;;;;;15.33;54.72;100902.28;5002446;28;20040;-88
2021/05/19 11:04:02;;;;;;;;;;;;;;;15.24;52.38;100902.47;5015780;28;20056;-88
2021/05/19 11:06:27;;;;;;;4.78;1.45;;;;;;;15.02;51.95;100917.81;5014574;28;19956;-88
2021/05/19 11:09:24;;;;;;;3.72;1.70;;;;;;;14.56;55.77;100901.09;4984463;28;20092;-89
2021/05/19 11:11:50;;;;;;;4.47;1.50;;;;;;;14.50;52.77;100929.28;5010899;28;20401;-88
2021/05/19 11:14:33;;;;;;;6.18;1.70;;;;;;;14.51;52.84;100910.84;5001537;28;20064;-88
2021/05/19 11:17:12;;;;;;;2.78;1.52;;;;;;;14.50;53.92;100919.63;5000288;28;20041;-89
2021/05/19 11:19:38;;;;;;;4.43;1.48;;;;;;;14.81;55.99;100904.19;5006544;28;20033;-88
2021/05/19 11:22:13;;;;;;;4.65;1.33;;;;;;;14.96;52.43;100926.72;4983948;28;20049;-87
2021/05/19 11:24:59;;;;;;;5.63;1.30;;;;;;;14.93;51.57;100899.59;4985425;28;20033;-87
2021/05/19 11:27:27;;;;;;;4.95;1.73;;;;;;;14.77;55.20;100902.53;5016413;28;20101;-88
2021/05/19 11:29:54;;;;;;;10.50;1.70;;;;;;;14.51;55.15;100892.44;4984139;28;20056;-87
2021/05/19 11:32:26;;;;;;;3.22;1.30;;;;;;;14.73;54.80;100907.84;4999186;28;20127;-88
2021/05/19 11:34:52;;;;;;;5.05;1.42;;;;;;;14.43;56.23;100892.56;5014327;28;20876;-88
2021/05/19 11:37:22;;;;;;;5.95;2.10;;;;;;;14.41;55.33;100889.09;4984025;28;20493;-88
2021/05/19 11:39:56;;;;;;;4.18;1.40;;;;;;;14.40;55.27;100889.09;5012246;28;20825;-88
2021/05/19 11:42:33;;;;;;;4.53;1.73;;;;;;;14.52;54.34;100924.84;5016700;28;20524;-87